This is the latest recevied weather packets stored in our database for station/object HS5SQI-2. If no packets are shown the sender has not sent any weather packets the latest 10 day(s).
| Time | Temp. | Humidity | Pressure | Rain* | Wind** | Luminosity | Snow |
|---|---|---|---|---|---|---|---|
| 1777904752 | 29.44° C | 85% | 1008 hPa | - | - | 0 W/m² | - |
| 1777904130 | 29.44° C | 84% | 1008 hPa | - | - | 0 W/m² | - |
| 1777903508 | 30.56° C | 80% | 1008 hPa | - | - | 0 W/m² | - |
| 1777902886 | 30.56° C | 77% | 1007 hPa | - | - | 0 W/m² | - |
| 1777902264 | 30.56° C | 76% | 1007 hPa | - | - | 0 W/m² | - |
| 1777901642 | 30.56° C | 76% | 1007 hPa | - | - | 0 W/m² | - |
| 1777901020 | 30.56° C | 77% | 1007 hPa | - | - | 0 W/m² | - |
| 1777900398 | 30.56° C | 77% | 1007 hPa | - | - | 0 W/m² | - |
| 1777899776 | 30.56° C | 77% | 1007 hPa | - | - | 0 W/m² | - |
| 1777899154 | 30.56° C | 78% | 1007 hPa | - | - | 0 W/m² | - |
| 1777898532 | 30.56° C | 78% | 1006 hPa | - | - | 0 W/m² | - |
| 1777897909 | 30.56° C | 80% | 1006 hPa | - | - | 0 W/m² | - |
| 1777897287 | 30.56° C | 80% | 1006 hPa | - | - | 0 W/m² | - |
| 1777896665 | 30.56° C | 80% | 1006 hPa | - | - | 0 W/m² | - |
| 1777896043 | 30.56° C | 81% | 1006 hPa | - | - | 0 W/m² | - |
| 1777895421 | 30.56° C | 80% | 1006 hPa | - | - | 0 W/m² | - |
| 1777894799 | 31.11° C | 79% | 1006 hPa | - | - | 0 W/m² | - |
| 1777894177 | 30.56° C | 80% | 1005 hPa | - | - | 0 W/m² | - |
| 1777893555 | 31.11° C | 79% | 1005 hPa | - | - | 0 W/m² | - |
| 1777892933 | 31.11° C | 78% | 1005 hPa | - | - | 0 W/m² | - |
| 1777892311 | 31.11° C | 78% | 1005 hPa | - | - | 0 W/m² | - |
| 1777891689 | 31.11° C | 79% | 1005 hPa | - | - | 0 W/m² | - |
| 1777891067 | 31.11° C | 77% | 1005 hPa | - | - | 0 W/m² | - |
| 1777890445 | 31.67° C | 77% | 1005 hPa | - | - | 0 W/m² | - |
| 1777889823 | 31.11° C | 77% | 1005 hPa | - | - | 0 W/m² | - |
* Rain since midnight (hover to see other rain measurements)
** Current wind speed in m/s (hover to see current wind gust speed)